Time;durP1;ratioP1;P1;durP2;ratioP2;P2;SDS_P1;SDS_P2;PMS_P1;PMS_P2;Temp;Humidity;BMP_temperature;BMP_pressure;BME280_temperature;BME280_humidity;BME280_pressure;Samples;Min_cycle;Max_cycle;Signal;HPM_P1;HPM_P2
2021/11/14 00:00:36;;;;;;;42.50;22.17;;;;;;;3.70;77.75;93844.03;5111044;28;20038;-53
2021/11/14 00:03:03;;;;;;;36.95;21.33;;;;;;;3.59;78.60;93837.81;5096831;28;20028;-52
2021/11/14 00:05:28;;;;;;;45.47;23.60;;;;;;;3.88;77.37;93842.09;5090750;28;20493;-52
2021/11/14 00:07:54;;;;;;;41.72;22.88;;;;;;;3.89;77.34;93832.63;5090913;28;20034;-51
2021/11/14 00:10:20;;;;;;;40.97;22.73;;;;;;;3.83;77.11;93829.91;5090953;28;20516;-55
2021/11/14 00:12:45;;;;;;;31.85;18.77;;;;;;;3.96;76.72;93827.44;5090348;28;20065;-52
2021/11/14 00:15:12;;;;;;;31.38;18.25;;;;;;;3.81;76.27;93835.13;5110524;28;20031;-51
2021/11/14 00:17:38;;;;;;;34.78;18.80;;;;;;;3.73;76.60;93826.66;5110892;27;20124;-51
2021/11/14 00:20:07;;;;;;;40.33;22.60;;;;;;;3.66;76.39;93824.41;5110779;28;20028;-51
2021/11/14 00:22:32;;;;;;;37.10;20.40;;;;;;;3.64;76.52;93821.44;5110643;28;20020;-52
2021/11/14 00:25:00;;;;;;;40.28;22.90;;;;;;;3.60;77.60;93815.47;5092057;28;20059;-52
2021/11/14 00:27:26;;;;;;;34.10;19.05;;;;;;;3.62;76.60;93820.44;5090347;28;20524;-52
2021/11/14 00:29:52;;;;;;;33.83;17.40;;;;;;;3.56;77.17;93816.97;5090630;28;20023;-54
2021/11/14 00:32:18;;;;;;;31.13;16.75;;;;;;;3.46;77.07;93802.81;5090313;28;20485;-52
2021/11/14 00:34:43;;;;;;;33.58;17.65;;;;;;;3.54;77.24;93817.47;5090267;28;20081;-60
2021/11/14 00:37:09;;;;;;;34.45;18.70;;;;;;;3.57;77.22;93819.19;5095688;28;20043;-59
2021/11/14 00:39:36;;;;;;;36.85;20.60;;;;;;;3.67;76.87;93817.72;5110831;28;20026;-57
2021/11/14 00:42:01;;;;;;;35.47;18.67;;;;;;;3.50;77.11;93802.56;5110849;28;20019;-59
2021/11/14 00:44:27;;;;;;;32.33;18.15;;;;;;;3.57;77.65;93818.47;5110489;28;20408;-59
2021/11/14 00:46:53;;;;;;;32.58;18.05;;;;;;;3.43;77.19;93811.22;5110848;28;20024;-59
2021/11/14 00:49:18;;;;;;;38.58;19.85;;;;;;;3.50;77.19;93819.69;5099877;28;20508;-59
2021/11/14 00:51:44;;;;;;;37.30;20.98;;;;;;;3.46;77.76;93821.94;5106574;28;20032;-59
2021/11/14 00:54:09;;;;;;;37.83;20.00;;;;;;;3.56;78.00;93812.25;5107591;28;20027;-59
2021/11/14 00:56:35;;;;;;;41.17;19.05;;;;;;;3.65;77.33;93814.00;5110597;28;20031;-60
2021/11/14 00:59:01;;;;;;;37.10;17.42;;;;;;;3.58;76.90;93809.03;5110332;28;20051;-60
2021/11/14 01:01:26;;;;;;;32.63;17.98;;;;;;;3.50;77.00;93818.94;5112865;28;20066;-60
2021/11/14 01:03:53;;;;;;;42.33;19.55;;;;;;;3.51;77.63;93809.53;5095031;28;20031;-60
2021/11/14 01:06:18;;;;;;;40.90;19.42;;;;;;;3.57;77.50;93810.28;5094212;28;20475;-60
2021/11/14 01:08:44;;;;;;;34.85;18.58;;;;;;;3.37;77.81;93811.25;5095544;28;20028;-60
2021/11/14 01:11:10;;;;;;;37.97;18.40;;;;;;;3.32;77.80;93808.47;5111685;28;20043;-59
2021/11/14 01:13:36;;;;;;;43.53;18.95;;;;;;;3.29;77.73;93812.94;5114623;28;20032;-59
2021/11/14 01:16:03;;;;;;;40.28;19.50;;;;;;;3.33;78.41;93805.28;5114652;28;20024;-60
2021/11/14 01:18:29;;;;;;;38.95;17.65;;;;;;;3.25;78.48;93798.06;5114110;28;20721;-59
2021/11/14 01:20:57;;;;;;;42.35;18.25;;;;;;;3.36;78.01;93804.28;5114460;28;20028;-59
2021/11/14 01:23:23;;;;;;;37.83;19.05;;;;;;;3.43;77.53;93803.03;5114223;28;20512;-59
2021/11/14 01:25:49;;;;;;;34.55;17.63;;;;;;;3.15;77.87;93802.25;5114487;28;20110;-60
2021/11/14 01:28:15;;;;;;;32.60;17.55;;;;;;;3.29;78.09;93804.75;5114123;28;20028;-59
2021/11/14 01:30:43;;;;;;;31.42;16.98;;;;;;;3.35;77.31;93807.50;5107186;28;20457;-57
2021/11/14 01:33:09;;;;;;;31.73;16.30;;;;;;;3.29;77.25;93802.03;5112241;28;20031;-62
2021/11/14 01:35:35;;;;;;;35.10;16.83;;;;;;;2.90;78.38;93806.66;5111154;28;20031;-63
2021/11/14 01:38:04;;;;;;;30.15;17.40;;;;;;;2.92;79.15;93812.34;5111599;28;20100;-64
2021/11/14 01:40:37;;;;;;;28.92;15.73;;;;;;;2.83;78.53;93812.56;5114116;28;20086;-64
2021/11/14 01:43:04;;;;;;;35.67;17.25;;;;;;;2.94;78.24;93807.91;5113832;28;20110;-64
2021/11/14 01:45:30;;;;;;;27.85;15.15;;;;;;;2.95;78.45;93809.38;5113764;28;20028;-64
2021/11/14 01:47:55;;;;;;;34.58;17.27;;;;;;;2.93;78.12;93808.38;5114018;28;20027;-64
2021/11/14 01:50:21;;;;;;;34.47;16.85;;;;;;;2.86;78.62;93795.19;5113598;28;20024;-62
2021/11/14 01:52:49;;;;;;;33.58;15.43;;;;;;;3.15;77.52;93808.44;5113431;28;20024;-62
2021/11/14 01:55:18;;;;;;;32.63;15.90;;;;;;;3.12;77.68;93803.97;5113488;28;20020;-62
2021/11/14 01:57:44;;;;;;;35.28;16.27;;;;;;;2.97;77.41;93806.91;5112813;28;20051;-62
2021/11/14 02:00:18;;;;;;;32.95;16.05;;;;;;;2.87;78.09;93804.88;5113525;28;20027;-61
2021/11/14 02:02:44;;;;;;;36.58;16.55;;;;;;;2.78;78.68;93799.63;5113247;28;20028;-62
2021/11/14 02:05:10;;;;;;;34.70;17.60;;;;;;;2.91;78.16;93797.22;5113236;28;20054;-62
2021/11/14 02:07:36;;;;;;;39.33;17.15;;;;;;;2.84;78.38;93798.44;5110803;28;20030;-57
2021/11/14 02:10:04;;;;;;;29.85;16.33;;;;;;;2.84;77.89;93792.22;5111608;27;20019;-55
2021/11/14 02:12:29;;;;;;;41.85;17.65;;;;;;;2.84;78.08;93786.78;5110495;28;20036;-56
2021/11/14 02:14:55;;;;;;;38.03;16.55;;;;;;;2.79;78.43;93791.00;5094139;28;20042;-56
2021/11/14 02:17:20;;;;;;;43.95;17.70;;;;;;;2.98;78.42;93800.22;5099810;28;20495;-55
2021/11/14 02:19:50;;;;;;;34.80;18.35;;;;;;;2.92;78.12;93793.97;5109991;28;20518;-58
2021/11/14 02:22:16;;;;;;;39.70;17.92;;;;;;;2.92;78.25;93785.06;5099693;28;20044;-59
2021/11/14 02:24:42;;;;;;;33.58;17.45;;;;;;;2.99;78.29;93798.97;5092822;28;20032;-59
2021/11/14 02:27:07;;;;;;;35.75;16.48;;;;;;;2.77;78.56;93790.72;5092557;28;20039;-58
2021/11/14 02:29:32;;;;;;;37.05;18.38;;;;;;;2.72;79.11;93798.88;5092578;28;20023;-59
2021/11/14 02:31:58;;;;;;;36.47;18.40;;;;;;;2.84;79.42;93786.78;5092748;28;20039;-59
2021/11/14 02:34:23;;;;;;;30.25;16.83;;;;;;;2.75;79.21;93787.00;5110945;28;20451;-58
2021/11/14 02:36:49;;;;;;;28.95;16.58;;;;;;;3.03;78.28;93788.56;5112345;28;20035;-59
2021/11/14 02:39:15;;;;;;;30.02;16.13;;;;;;;2.84;78.21;93782.06;5112955;28;20027;-60
2021/11/14 02:41:41;;;;;;;32.38;16.92;;;;;;;2.90;78.35;93766.47;5112720;28;20558;-60
2021/11/14 02:44:06;;;;;;;34.67;16.73;;;;;;;3.14;77.69;93787.84;5112163;28;20024;-59
2021/11/14 02:46:32;;;;;;;29.83;15.70;;;;;;;3.20;77.21;93779.69;5112878;28;20023;-59
2021/11/14 02:48:57;;;;;;;29.42;16.50;;;;;;;3.18;76.75;93782.91;5112794;28;20540;-61
2021/11/14 02:51:26;;;;;;;26.38;15.50;;;;;;;3.11;76.33;93777.19;5112367;28;20664;-61
2021/11/14 02:53:51;;;;;;;26.63;15.20;;;;;;;3.06;76.24;93759.56;5112210;28;20106;-60
2021/11/14 02:56:17;;;;;;;31.88;16.95;;;;;;;3.13;76.76;93774.72;5110515;28;20427;-60
2021/11/14 02:58:43;;;;;;;31.20;15.55;;;;;;;3.00;75.79;93767.00;5105718;28;20024;-60
2021/11/14 03:01:13;;;;;;;33.58;18.10;;;;;;;2.72;76.70;93786.00;5112269;28;20488;-60
2021/11/14 03:03:40;;;;;;;33.10;16.42;;;;;;;2.78;77.43;93788.72;5112590;28;20023;-60
2021/11/14 03:06:05;;;;;;;28.30;16.00;;;;;;;2.83;77.28;93791.50;5105637;28;20023;-61
2021/11/14 03:08:31;;;;;;;63.20;17.80;;;;;;;2.87;77.07;93786.56;5091748;28;20020;-58
2021/11/14 03:10:57;;;;;;;28.13;15.80;;;;;;;2.95;76.91;93786.81;5110528;28;20027;-60
2021/11/14 03:13:23;;;;;;;29.05;14.90;;;;;;;2.82;77.18;93784.53;5112043;27;20028;-58
2021/11/14 03:15:55;;;;;;;29.65;14.80;;;;;;;3.05;76.29;93790.81;5112115;28;20030;-54
2021/11/14 03:18:21;;;;;;;25.67;14.68;;;;;;;3.02;76.37;93783.63;5111968;28;20470;-59
2021/11/14 03:20:49;;;;;;;27.80;15.20;;;;;;;2.81;76.57;93796.69;5111901;28;20020;-60
2021/11/14 03:23:15;;;;;;;32.22;16.58;;;;;;;2.66;76.87;93790.69;5111899;28;20019;-60
2021/11/14 03:25:41;;;;;;;30.27;15.30;;;;;;;2.73;77.87;93794.94;5112158;28;20039;-60
2021/11/14 03:28:07;;;;;;;30.27;16.45;;;;;;;2.60;77.80;93795.34;5112021;28;20080;-58
2021/11/14 03:30:33;;;;;;;34.75;17.58;;;;;;;2.53;78.40;93776.75;5112024;28;20031;-59
2021/11/14 03:33:00;;;;;;;36.88;16.05;;;;;;;2.51;78.74;93795.56;5111550;28;20027;-59
2021/11/14 03:35:26;;;;;;;39.78;16.33;;;;;;;2.34;78.72;93788.53;5110090;28;20059;-58
2021/11/14 03:37:52;;;;;;;32.70;15.70;;;;;;;2.45;78.98;93785.88;5110064;28;20071;-58
2021/11/14 03:40:19;;;;;;;30.88;16.85;;;;;;;2.37;79.63;93793.75;5109762;28;20099;-59
2021/11/14 03:42:45;;;;;;;33.40;17.45;;;;;;;2.40;79.50;93784.63;5110502;28;20031;-59
2021/11/14 03:45:11;;;;;;;38.05;16.95;;;;;;;2.26;79.49;93789.00;5110744;28;20083;-60
2021/11/14 03:47:38;;;;;;;40.78;18.85;;;;;;;2.35;79.86;93787.28;5111784;28;20027;-59
2021/11/14 03:50:04;;;;;;;35.75;18.35;;;;;;;2.46;79.55;93784.63;5111045;28;20624;-60
2021/11/14 03:52:29;;;;;;;37.95;17.98;;;;;;;2.38;79.57;93792.53;5109871;28;20044;-60
2021/11/14 03:54:55;;;;;;;128.60;43.13;;;;;;;2.30;80.20;93789.50;5109664;28;20045;-60
2021/11/14 03:57:20;;;;;;;88.43;33.95;;;;;;;2.40;79.99;93792.78;5109529;28;20024;-61
2021/11/14 03:59:45;;;;;;;43.85;20.58;;;;;;;2.53;79.65;93795.84;5109419;28;20032;-60
2021/11/14 04:02:11;;;;;;;37.83;19.63;;;;;;;2.40;79.72;93792.78;5104203;28;20032;-60
2021/11/14 04:04:36;;;;;;;56.17;30.35;;;;;;;2.44;80.01;93781.66;5089126;28;20028;-60
2021/11/14 04:07:02;;;;;;;49.25;24.48;;;;;;;2.31;79.43;93782.09;5091318;28;20035;-61
2021/11/14 04:09:27;;;;;;;49.50;22.92;;;;;;;2.25;79.94;93798.38;5090761;28;20035;-60
2021/11/14 04:11:53;;;;;;;42.63;18.60;;;;;;;2.24;80.47;93798.88;5091795;28;20043;-60
2021/11/14 04:14:19;;;;;;;64.10;31.50;;;;;;;2.25;81.10;93792.22;5090775;28;20036;-60
2021/11/14 04:16:44;;;;;;;51.17;23.98;;;;;;;2.22;81.41;93795.91;5090613;28;20110;-61
2021/11/14 04:19:11;;;;;;;51.38;27.17;;;;;;;2.21;81.00;93802.56;5090771;28;20034;-60
2021/11/14 04:21:37;;;;;;;36.33;19.67;;;;;;;2.19;81.26;93800.34;5090535;28;20424;-59
2021/11/14 04:24:03;;;;;;;36.58;17.90;;;;;;;2.09;81.12;93803.75;5090608;28;20107;-59
2021/11/14 04:26:28;;;;;;;30.23;15.45;;;;;;;2.10;80.60;93805.97;5090388;28;20039;-59
2021/11/14 04:28:54;;;;;;;25.80;15.18;;;;;;;1.90;81.54;93805.34;5089479;28;20020;-59
2021/11/14 04:31:20;;;;;;;32.50;17.20;;;;;;;2.08;81.38;93797.53;5090366;28;20031;-58
2021/11/14 04:33:45;;;;;;;34.40;17.52;;;;;;;2.07;81.12;93795.31;5090362;28;20028;-59
2021/11/14 04:36:10;;;;;;;35.33;17.38;;;;;;;2.01;82.07;93795.28;5089567;28;20020;-60
2021/11/14 04:38:36;;;;;;;34.17;17.52;;;;;;;2.11;81.86;93793.84;5090038;28;20040;-60
2021/11/14 04:41:02;;;;;;;37.40;17.92;;;;;;;2.26;81.45;93796.41;5090270;28;20097;-60
2021/11/14 04:43:28;;;;;;;39.80;20.38;;;;;;;2.15;81.22;93788.94;5090419;28;20090;-62
2021/11/14 04:45:53;;;;;;;40.97;20.10;;;;;;;2.07;81.13;93781.69;5090526;28;20398;-61
2021/11/14 04:48:20;;;;;;;48.38;20.70;;;;;;;2.15;81.60;93796.34;5090393;28;20113;-61
2021/11/14 04:50:46;;;;;;;49.70;20.33;;;;;;;2.11;81.63;93793.09;5090452;28;20024;-60
2021/11/14 04:53:11;;;;;;;50.55;21.65;;;;;;;1.79;81.70;93759.72;5090230;28;20111;-61
2021/11/14 04:55:38;;;;;;;38.80;18.35;;;;;;;2.03;81.56;93802.97;5090094;28;20024;-61
2021/11/14 04:58:04;;;;;;;63.45;32.78;;;;;;;2.02;82.02;93801.47;5092014;28;20536;-61
2021/11/14 05:00:42;;;;;;;37.28;20.00;;;;;;;2.19;81.10;93800.34;5110598;28;20028;-58
2021/11/14 05:03:08;;;;;;;35.75;18.40;;;;;;;2.20;81.63;93798.38;5110451;28;20031;-59
2021/11/14 05:05:36;;;;;;;32.70;16.65;;;;;;;2.12;80.88;93803.50;5110735;28;20023;-59
2021/11/14 05:08:01;;;;;;;47.20;19.35;;;;;;;2.16;81.86;93795.88;5110677;28;20054;-59
2021/11/14 05:10:27;;;;;;;37.80;17.15;;;;;;;2.10;81.72;93813.41;5096061;28;20016;-59
2021/11/14 05:12:53;;;;;;;31.30;16.95;;;;;;;2.04;81.56;93816.09;5089849;28;20035;-59
2021/11/14 05:15:18;;;;;;;42.63;17.10;;;;;;;1.98;81.70;93815.31;5090201;28;20031;-59
2021/11/14 05:17:43;;;;;;;33.40;17.35;;;;;;;2.12;nan;93816.41;5089991;28;20507;-59
2021/11/14 05:20:10;;;;;;;33.03;16.17;;;;;;;2.18;81.25;93823.38;5089697;28;20028;-58
2021/11/14 05:22:35;;;;;;;31.70;15.50;;;;;;;2.16;80.58;93825.84;5088595;28;20546;-52
2021/11/14 05:25:01;;;;;;;37.25;17.08;;;;;;;2.12;80.41;93825.28;5090210;28;20024;-51
2021/11/14 05:27:26;;;;;;;33.08;16.92;;;;;;;2.11;81.02;93833.97;5090010;28;20024;-57
2021/11/14 05:29:52;;;;;;;31.65;16.38;;;;;;;2.06;81.07;93829.97;5089833;28;20035;-57
2021/11/14 05:32:18;;;;;;;30.92;16.08;;;;;;;2.10;81.20;93827.75;5089724;28;20035;-60
2021/11/14 05:34:43;;;;;;;33.95;17.33;;;;;;;2.21;80.76;93825.09;5100805;28;20466;-60
2021/11/14 05:37:09;;;;;;;30.48;16.45;;;;;;;2.12;80.90;93828.00;5099992;28;20044;-60
2021/11/14 05:39:34;;;;;;;32.75;17.02;;;;;;;2.07;81.01;93831.47;5099710;28;20062;-57
2021/11/14 05:42:00;;;;;;;28.88;16.27;;;;;;;2.07;81.18;93841.59;5098632;28;20040;-59
2021/11/14 05:44:25;;;;;;;35.83;16.70;;;;;;;1.94;81.45;93822.94;5100320;28;20035;-60
2021/11/14 05:46:51;;;;;;;30.30;17.38;;;;;;;1.85;81.24;93819.66;5099695;28;20496;-59
2021/11/14 05:49:17;;;;;;;30.40;15.02;;;;;;;1.82;81.14;93842.41;5102112;28;20027;-57
2021/11/14 05:51:42;;;;;;;30.40;15.10;;;;;;;1.92;81.35;93838.28;5105445;27;20035;-59
2021/11/14 05:54:09;;;;;;;32.95;15.35;;;;;;;1.84;80.79;93840.69;5112821;28;20034;-57
2021/11/14 05:56:34;;;;;;;35.97;18.15;;;;;;;1.84;81.64;93835.22;5104783;28;20028;-58
2021/11/14 06:01:31;;;;;;;32.60;19.45;;;;;;;1.97;80.67;93846.47;5093380;28;20023;-58
2021/11/14 06:04:07;;;;;;;39.42;20.63;;;;;;;2.00;81.00;93850.22;5093187;28;20039;-58
2021/11/14 06:06:32;;;;;;;33.90;18.58;;;;;;;1.97;81.24;93853.91;5093005;28;20032;-58
2021/11/14 06:08:57;;;;;;;36.70;22.52;;;;;;;1.97;80.95;93859.38;5094631;28;20031;-59
2021/11/14 06:11:24;;;;;;;41.83;23.30;;;;;;;1.93;80.70;93869.69;5113257;28;20033;-58
2021/11/14 06:13:50;;;;;;;33.47;19.67;;;;;;;1.99;80.83;93863.06;5113511;28;20032;-59
2021/11/14 06:16:16;;;;;;;30.02;16.80;;;;;;;2.02;80.89;93867.56;5113030;28;20054;-55
2021/11/14 06:18:41;;;;;;;30.02;15.65;;;;;;;1.97;80.50;93870.97;5113138;28;20511;-56
2021/11/14 06:21:07;;;;;;;30.85;16.67;;;;;;;1.99;81.36;93870.53;5113084;28;20027;-49
2021/11/14 06:23:32;;;;;;;29.55;14.88;;;;;;;2.08;81.07;93865.63;5106400;28;20028;-53
2021/11/14 06:25:58;;;;;;;30.80;16.92;;;;;;;1.97;81.48;93872.97;5092574;28;20028;-59
2021/11/14 06:28:24;;;;;;;24.05;14.52;;;;;;;2.11;81.71;93874.81;5101686;28;20058;-57
2021/11/14 06:30:49;;;;;;;27.10;15.25;;;;;;;2.17;81.77;93878.31;5093396;28;20027;-60
2021/11/14 06:33:15;;;;;;;33.28;16.23;;;;;;;2.35;81.64;93877.22;5110239;28;20083;-58
2021/11/14 06:35:41;;;;;;;28.55;15.13;;;;;;;2.39;81.21;93873.03;5112903;28;20024;-60
2021/11/14 06:38:06;;;;;;;28.30;15.80;;;;;;;2.59;80.62;93869.44;5109692;28;20107;-60
2021/11/14 06:40:32;;;;;;;26.02;14.65;;;;;;;2.69;79.82;93874.19;5092329;28;20107;-60
2021/11/14 06:42:58;;;;;;;25.52;14.20;;;;;;;2.75;79.49;93879.69;5093019;28;20551;-59
2021/11/14 06:45:23;;;;;;;22.13;15.00;;;;;;;2.90;79.41;93875.53;5112618;28;20046;-58
2021/11/14 06:47:49;;;;;;;47.08;25.83;;;;;;;2.92;79.23;93875.06;5112598;28;20080;-61
2021/11/14 06:50:15;;;;;;;28.35;14.80;;;;;;;2.95;78.76;93874.84;5112717;28;20416;-60
2021/11/14 06:52:42;;;;;;;47.08;25.35;;;;;;;3.02;79.23;93868.91;5111091;28;20564;-61
2021/11/14 06:55:10;;;;;;;43.70;21.80;;;;;;;2.94;78.50;93867.16;5112496;28;20390;-56
2021/11/14 06:57:35;;;;;;;40.30;19.02;;;;;;;2.84;78.90;93844.78;5100144;28;20032;-58
2021/11/14 07:00:01;;;;;;;29.45;17.00;;;;;;;3.16;78.67;93863.75;5091984;28;20031;-59
2021/11/14 07:02:27;;;;;;;31.42;17.35;;;;;;;3.14;78.08;93866.97;5093055;28;20417;-59
2021/11/14 07:04:52;;;;;;;25.02;15.48;;;;;;;3.18;78.69;93862.03;5091966;28;20115;-59
2021/11/14 07:07:18;;;;;;;32.85;20.17;;;;;;;3.23;78.33;93866.75;5092129;28;20032;-59
2021/11/14 07:09:44;;;;;;;27.17;15.90;;;;;;;3.39;77.95;93870.78;5098969;28;20035;-59
2021/11/14 07:12:10;;;;;;;22.58;13.95;;;;;;;3.49;77.91;93870.06;5112191;28;20088;-59
2021/11/14 07:14:36;;;;;;;22.92;14.60;;;;;;;3.49;78.55;93864.59;5112075;28;20039;-59
2021/11/14 07:17:03;;;;;;;50.78;26.83;;;;;;;3.58;78.66;93872.56;5112156;28;20032;-59
2021/11/14 07:19:28;;;;;;;40.83;23.75;;;;;;;3.76;78.35;93874.09;5107689;28;20487;-56
2021/11/14 07:21:54;;;;;;;48.05;20.55;;;;;;;4.04;77.84;93869.41;5112008;28;20113;-57
2021/11/14 07:24:20;;;;;;;34.42;20.75;;;;;;;3.99;77.72;93867.41;5095913;28;20039;-57
2021/11/14 07:26:46;;;;;;;41.88;25.35;;;;;;;4.06;77.76;93869.66;5107693;28;20027;-59
2021/11/14 07:29:11;;;;;;;27.15;17.75;;;;;;;4.05;78.06;93868.16;5112090;27;20023;-58
2021/11/14 07:31:37;;;;;;;27.67;15.55;;;;;;;4.13;77.52;93869.16;5094387;28;20027;-57
2021/11/14 07:34:02;;;;;;;35.72;19.58;;;;;;;4.30;77.05;93867.16;5089171;28;20050;-58
2021/11/14 07:36:28;;;;;;;29.77;17.30;;;;;;;4.37;76.88;93863.19;5088948;28;20035;-60
2021/11/14 07:38:53;;;;;;;25.38;15.07;;;;;;;4.46;76.72;93862.94;5088830;28;20128;-59
2021/11/14 07:41:19;;;;;;;23.50;14.68;;;;;;;4.58;75.78;93859.69;5088963;28;20032;-59
2021/11/14 07:43:44;;;;;;;28.38;16.73;;;;;;;4.76;75.36;93861.13;5089169;28;20082;-59
2021/11/14 07:46:10;;;;;;;26.40;14.93;;;;;;;4.89;74.20;93849.66;5089078;28;20416;-53
2021/11/14 07:48:36;;;;;;;22.77;14.90;;;;;;;5.03;73.06;93851.34;5103788;28;20027;-58
2021/11/14 07:51:03;;;;;;;22.33;13.30;;;;;;;5.10;73.07;93853.56;5090949;28;20126;-58
2021/11/14 07:53:29;;;;;;;23.40;13.80;;;;;;;5.22;72.71;93852.25;5088540;28;20039;-55
2021/11/14 07:55:55;;;;;;;22.63;13.93;;;;;;;5.15;72.65;93850.81;5088329;28;20035;-57
2021/11/14 07:58:20;;;;;;;22.70;15.35;;;;;;;5.12;73.00;93860.03;5088589;28;20039;-57
2021/11/14 08:00:47;;;;;;;24.25;14.70;;;;;;;5.31;72.86;93860.94;5088933;28;20020;-57
2021/11/14 08:03:13;;;;;;;23.35;14.57;;;;;;;5.32;72.39;93861.69;5089023;28;20024;-55
2021/11/14 08:05:40;;;;;;;21.70;14.50;;;;;;;5.18;72.54;93862.72;5088526;28;20520;-58
2021/11/14 08:08:07;;;;;;;24.27;16.13;;;;;;;5.10;73.68;93853.56;5088967;28;20034;-59
2021/11/14 08:10:33;;;;;;;31.10;18.65;;;;;;;4.97;74.47;93862.31;5103484;28;20049;-56
2021/11/14 08:13:02;;;;;;;25.75;16.27;;;;;;;4.87;75.07;93860.34;5108957;28;20031;-59
2021/11/14 08:15:28;;;;;;;31.63;16.95;;;;;;;4.76;75.50;93849.44;5108467;28;20024;-48
2021/11/14 08:17:54;;;;;;;26.75;16.95;;;;;;;5.17;74.87;93855.78;5108447;28;20032;-57
2021/11/14 08:20:20;;;;;;;24.92;15.27;;;;;;;5.49;74.07;93862.34;5108590;28;20755;-58
2021/11/14 08:22:45;;;;;;;25.42;16.92;;;;;;;5.67;73.27;93856.28;5108388;28;20032;-49
2021/11/14 08:25:12;;;;;;;26.60;16.75;;;;;;;5.53;72.48;93853.84;5108382;28;20063;-54
2021/11/14 08:27:37;;;;;;;33.70;20.38;;;;;;;5.67;73.54;93858.28;5108739;28;20046;-55
2021/11/14 08:30:05;;;;;;;32.03;16.65;;;;;;;5.68;71.73;93860.50;5108872;28;20408;-52
2021/11/14 08:32:31;;;;;;;22.05;14.32;;;;;;;5.75;71.23;93859.97;5107596;28;20031;-51
2021/11/14 08:34:56;;;;;;;26.80;15.65;;;;;;;5.68;70.97;93857.75;5108639;28;20042;-53
2021/11/14 08:37:22;;;;;;;25.42;16.25;;;;;;;5.65;71.66;93861.50;5090226;28;20109;-51
2021/11/14 08:39:48;;;;;;;26.08;16.10;;;;;;;5.66;71.60;93863.00;5088066;28;20032;-54
2021/11/14 08:42:15;;;;;;;32.67;18.15;;;;;;;5.86;72.19;93862.66;5087914;28;20048;-52
2021/11/14 08:44:41;;;;;;;30.27;18.08;;;;;;;6.18;70.75;93854.69;5107661;28;20367;-53
2021/11/14 08:47:07;;;;;;;24.95;15.80;;;;;;;6.41;69.11;93849.78;5108422;28;20099;-53
2021/11/14 08:49:32;;;;;;;28.35;17.52;;;;;;;6.35;68.50;93849.06;5108105;28;20500;-53
2021/11/14 08:51:58;;;;;;;25.83;15.98;;;;;;;6.18;69.46;93846.47;5096194;28;20163;-54
2021/11/14 08:54:24;;;;;;;28.80;17.55;;;;;;;7.03;69.11;93821.22;5087673;28;20754;-53
2021/11/14 08:56:50;;;;;;;44.72;15.45;;;;;;;8.92;63.25;93841.19;5088067;28;20039;-51
2021/11/14 08:59:15;;;;;;;20.40;13.07;;;;;;;10.51;57.61;93843.81;5088012;28;20039;-53
2021/11/14 09:01:41;;;;;;;20.67;12.27;;;;;;;11.51;52.54;93839.19;5086853;28;20023;-54
2021/11/14 09:04:07;;;;;;;16.95;11.32;;;;;;;12.59;49.14;93831.41;5093452;28;20035;-59
2021/11/14 09:06:34;;;;;;;20.58;11.65;;;;;;;12.69;47.89;93830.31;5088214;28;20035;-60
2021/11/14 09:09:00;;;;;;;19.48;13.45;;;;;;;12.66;48.88;93831.44;5099037;28;20027;-59
2021/11/14 09:11:26;;;;;;;16.23;12.82;;;;;;;13.24;46.29;93824.94;5097554;28;20024;-59
2021/11/14 09:13:52;;;;;;;28.88;12.55;;;;;;;14.12;44.43;93823.00;5107482;28;20041;-59
2021/11/14 09:16:18;;;;;;;15.57;11.35;;;;;;;14.45;42.56;93816.16;5106644;28;20019;-58
2021/11/14 09:18:44;;;;;;;16.67;10.93;;;;;;;14.11;42.82;93819.50;5108850;28;20016;-57
2021/11/14 09:21:10;;;;;;;16.83;12.65;;;;;;;12.87;45.68;93820.16;5108262;28;20024;-57
2021/11/14 09:23:35;;;;;;;21.48;13.02;;;;;;;12.43;46.66;93822.34;5114319;28;20042;-58
2021/11/14 09:26:01;;;;;;;17.30;12.73;;;;;;;11.45;48.56;93827.53;5114552;27;20045;-55
2021/11/14 09:28:26;;;;;;;19.17;13.48;;;;;;;11.16;50.67;93828.84;5114088;28;20034;-61
2021/11/14 09:30:53;;;;;;;19.50;14.15;;;;;;;12.36;50.36;93822.34;5113009;28;20027;-60
2021/11/14 09:33:24;;;;;;;15.93;11.50;;;;;;;13.98;44.92;93810.66;5112089;28;20035;-55
2021/11/14 09:35:50;;;;;;;15.07;11.68;;;;;;;15.36;41.64;93813.38;5105911;28;20028;-58
2021/11/14 09:38:16;;;;;;;14.38;11.25;;;;;;;15.82;39.83;93819.25;5090458;28;20123;-59
2021/11/14 09:40:42;;;;;;;12.35;10.00;;;;;;;16.26;38.25;93820.00;5105162;28;20115;-60
2021/11/14 09:43:07;;;;;;;13.25;10.90;;;;;;;17.22;36.43;93800.91;5112213;28;20027;-58
2021/11/14 09:45:34;;;;;;;12.68;10.30;;;;;;;17.51;36.69;93798.94;5113587;28;20031;-58
2021/11/14 09:48:00;;;;;;;14.82;11.18;;;;;;;18.18;34.93;93799.66;5113622;28;20019;-59
2021/11/14 09:50:27;;;;;;;34.63;13.40;;;;;;;18.78;33.31;93799.66;5112874;28;20016;-59
2021/11/14 09:52:53;;;;;;;19.35;15.88;;;;;;;19.16;32.90;93798.78;5104847;28;20046;-54
2021/11/14 12:47:37;;;;;;;27.88;11.43;;;;;;;15.47;37.48;93698.84;5127650;27;20621;-53
2021/11/14 12:50:12;;;;;;;12.05;10.15;;;;;;;15.71;36.58;93720.25;5128143;28;20031;-55
2021/11/14 12:52:39;;;;;;;23.88;11.10;;;;;;;15.23;37.43;93726.72;5128170;28;20023;-51
2021/11/14 12:55:11;;;;;;;25.42;16.60;;;;;;;14.97;38.43;93728.84;5125281;28;20020;-54
2021/11/14 12:58:01;;;;;;;15.48;12.35;;;;;;;14.81;38.21;93727.50;5124272;28;20407;-50
2021/11/14 13:00:30;;;;;;;15.10;10.80;;;;;;;14.89;39.30;93730.22;5128488;28;20034;-51
2021/11/14 13:02:56;;;;;;;17.83;10.63;;;;;;;14.85;38.84;93727.13;5128365;28;20034;-51
2021/11/14 13:05:21;;;;;;;13.70;10.00;;;;;;;14.46;39.59;93705.78;5123313;28;20020;-50
2021/11/14 13:08:02;;;;;;;13.65;11.07;;;;;;;14.59;39.90;93722.91;5118152;28;20024;-52
2021/11/14 13:10:30;;;;;;;15.13;11.57;;;;;;;14.39;40.28;93733.06;5126254;28;20029;-50
2021/11/14 13:12:56;;;;;;;22.87;13.10;;;;;;;14.26;40.64;93702.00;5128247;28;20089;-57
2021/11/14 13:15:22;;;;;;;18.25;13.15;;;;;;;14.50;40.48;93722.78;5127898;28;21003;-51
2021/11/14 13:17:54;;;;;;;18.77;12.65;;;;;;;14.56;40.68;93720.50;5128038;28;20080;-51
2021/11/14 13:20:22;;;;;;;14.45;11.75;;;;;;;14.70;40.03;93716.88;5127786;28;20027;-54
2021/11/14 13:22:50;;;;;;;25.48;16.23;;;;;;;14.60;40.41;93720.84;5128074;28;20030;-50
2021/11/14 13:25:28;;;;;;;21.63;14.63;;;;;;;14.70;40.11;93727.25;5127239;28;20507;-53
2021/11/14 13:27:54;;;;;;;15.77;12.57;;;;;;;14.40;40.57;93728.25;5123265;28;20027;-49
2021/11/14 13:30:22;;;;;;;26.60;11.95;;;;;;;14.39;41.72;93732.31;5117300;28;20024;-49
2021/11/14 13:32:48;;;;;;;21.45;11.80;;;;;;;14.38;41.30;93726.00;5116235;28;20548;-56
2021/11/14 13:35:14;;;;;;;15.50;11.55;;;;;;;14.26;40.90;93735.34;5125613;28;20107;-50
2021/11/14 13:37:40;;;;;;;22.15;14.73;;;;;;;14.09;41.50;93727.69;5112430;28;20065;-52
2021/11/14 13:40:14;;;;;;;16.00;11.70;;;;;;;14.02;41.63;93727.72;5103920;28;20027;-54
2021/11/14 13:43:01;;;;;;;15.25;12.15;;;;;;;13.73;42.40;93707.19;5106689;28;20704;-52
2021/11/14 13:45:34;;;;;;;43.33;21.27;;;;;;;13.77;42.75;93729.72;5120626;28;20055;-49
2021/11/14 13:48:08;;;;;;;57.28;29.00;;;;;;;13.59;42.83;93726.09;5109852;28;20559;-50
2021/11/14 13:50:35;;;;;;;115.80;50.53;;;;;;;13.58;42.94;93710.75;5111225;28;20073;-50
2021/11/14 13:53:03;;;;;;;28.52;18.23;;;;;;;13.11;43.64;93705.22;5098318;28;20028;-50
2021/11/14 13:55:40;;;;;;;43.03;24.42;;;;;;;13.20;44.02;93707.41;5105838;28;20023;-50
2021/11/14 13:58:06;;;;;;;25.10;16.00;;;;;;;13.13;43.76;93705.38;5111106;28;20034;-51
2021/11/14 14:00:32;;;;;;;48.00;24.38;;;;;;;13.15;43.51;93706.31;5111047;28;20084;-53
2021/11/14 14:02:58;;;;;;;36.30;16.73;;;;;;;13.15;43.40;93716.66;5110388;28;20035;-49
2021/11/14 14:05:24;;;;;;;37.83;22.15;;;;;;;12.85;43.46;93718.19;5110035;28;20043;-49
2021/11/14 14:07:50;;;;;;;56.53;30.60;;;;;;;12.74;43.95;93717.81;5108554;28;20850;-67
2021/11/14 14:10:19;;;;;;;23.48;17.08;;;;;;;12.63;44.21;93716.19;5110418;28;20052;-66
2021/11/14 14:12:45;;;;;;;53.10;28.48;;;;;;;12.58;44.27;93713.63;5110672;28;20049;-68
2021/11/14 14:15:22;;;;;;;23.70;15.57;;;;;;;12.58;43.68;93717.09;5110400;28;20023;-63